Time;durP1;ratioP1;P1;durP2;ratioP2;P2;SDS_P1;SDS_P2;PMS_P1;PMS_P2;Temp;Humidity;BMP_temperature;BMP_pressure;BME280_temperature;BME280_humidity;BME280_pressure;Samples;Min_cycle;Max_cycle;Signal;HPM_P1;HPM_P2
2022/08/28 00:01:34;;;;;;;15.23;12.65;;;27.90;99.90;;;;;;4159752;28;20060;-65
2022/08/28 00:03:38;;;;;;;16.27;11.80;;;28.00;99.90;;;;;;4158956;28;20037;-65
2022/08/28 00:05:42;;;;;;;16.98;12.43;;;27.90;99.90;;;;;;4156947;28;20050;-65
2022/08/28 00:07:51;;;;;;;13.98;11.55;;;28.00;99.90;;;;;;4157098;28;20033;-65
2022/08/28 00:09:55;;;;;;;16.55;11.52;;;27.90;99.90;;;;;;4156356;28;20042;-65
2022/08/28 00:12:00;;;;;;;14.65;10.85;;;28.00;99.90;;;;;;4155369;28;20946;-64
2022/08/28 00:14:09;;;;;;;13.60;10.80;;;28.00;99.90;;;;;;4156792;28;20064;-65
2022/08/28 00:16:13;;;;;;;14.73;10.60;;;28.20;99.90;;;;;;4155801;28;20129;-64
2022/08/28 00:18:18;;;;;;;11.77;10.10;;;28.20;99.90;;;;;;4156750;28;20080;-65
2022/08/28 00:20:26;;;;;;;15.18;10.55;;;28.30;99.90;;;;;;4156355;28;20034;-65
2022/08/28 00:22:31;;;;;;;12.40;10.10;;;28.40;99.90;;;;;;4155831;28;20056;-65
2022/08/28 00:24:38;;;;;;;10.60;9.43;;;28.30;99.90;;;;;;4156184;28;20049;-64
2022/08/28 00:29:04;;;;;;;13.40;10.20;;;28.40;99.90;;;;;;4155923;28;20440;-65
2022/08/28 00:31:09;;;;;;;12.35;9.68;;;28.50;99.90;;;;;;4155852;28;20073;-65
2022/08/28 00:33:26;;;;;;;13.18;9.93;;;28.50;99.90;;;;;;4154850;28;20038;-65
2022/08/28 00:35:30;;;;;;;11.90;9.32;;;28.50;99.90;;;;;;4156030;28;20049;-65
2022/08/28 00:37:38;;;;;;;12.95;8.52;;;28.50;99.90;;;;;;4156471;28;20041;-65
2022/08/28 00:39:44;;;;;;;14.43;8.65;;;28.60;99.90;;;;;;4121711;28;20046;-65
2022/08/28 00:41:51;;;;;;;12.95;7.93;;;28.60;99.90;;;;;;4156388;28;20037;-65
2022/08/28 00:44:15;;;;;;;11.45;8.35;;;28.70;99.90;;;;;;4155243;28;20050;-67
2022/08/28 00:46:23;;;;;;;14.20;8.18;;;28.80;99.90;;;;;;4157283;28;20041;-64
2022/08/28 00:48:28;;;;;;;11.38;7.85;;;28.80;99.90;;;;;;4160015;28;20045;-65
2022/08/28 00:52:04;;;;;;;14.70;8.23;;;28.80;99.90;;;;;;4160327;28;21384;-65
2022/08/28 00:53:04;;;;;;;10.93;8.18;;;28.90;99.90;;;;;;4170419;28;20053;-65
2022/08/28 00:55:12;;;;;;;12.60;8.85;;;29.00;99.90;;;;;;4160054;28;20041;-65
2022/08/28 00:57:20;;;;;;;10.60;7.50;;;29.00;99.90;;;;;;4158852;28;20046;-65
2022/08/28 00:59:32;;;;;;;9.20;7.10;;;29.10;99.90;;;;;;4134658;28;20052;-66
2022/08/28 01:01:37;;;;;;;8.00;6.78;;;29.00;99.90;;;;;;4160259;28;20053;-65
2022/08/28 01:03:42;;;;;;;9.90;6.97;;;29.10;99.90;;;;;;4163244;28;20469;-65
2022/08/28 01:05:51;;;;;;;9.65;6.47;;;29.00;99.90;;;;;;4163612;28;20041;-65
2022/08/28 01:07:57;;;;;;;9.07;6.63;;;29.10;99.90;;;;;;4163529;28;20038;-65
2022/08/28 01:10:03;;;;;;;9.98;6.55;;;29.20;99.90;;;;;;4163197;28;20044;-65
2022/08/28 01:12:20;;;;;;;8.45;6.07;;;29.20;99.90;;;;;;4163189;28;20069;-65
2022/08/28 01:14:25;;;;;;;8.85;6.10;;;29.30;99.90;;;;;;4162169;28;20420;-65
2022/08/28 01:16:30;;;;;;;7.20;5.38;;;29.30;99.90;;;;;;4163418;28;20381;-65
2022/08/28 01:18:39;;;;;;;7.28;5.28;;;29.30;99.90;;;;;;4160978;28;20449;-66
2022/08/28 01:20:53;;;;;;;9.35;6.05;;;29.40;99.90;;;;;;4164058;28;20053;-65
2022/08/28 01:23:08;;;;;;;8.23;5.45;;;29.40;99.90;;;;;;4160478;28;20041;-65
2022/08/28 01:25:18;;;;;;;8.85;5.68;;;29.50;99.90;;;;;;4160630;28;20064;-65
2022/08/28 01:27:22;;;;;;;8.88;6.20;;;29.50;99.90;;;;;;4163372;28;20064;-65
2022/08/28 01:29:28;;;;;;;10.05;6.55;;;29.50;99.90;;;;;;4162659;28;20071;-65
2022/08/28 01:31:35;;;;;;;7.80;6.43;;;29.50;99.90;;;;;;4161315;28;20423;-65
2022/08/28 01:33:40;;;;;;;9.52;6.10;;;29.50;99.90;;;;;;4162853;28;20042;-65
2022/08/28 01:35:49;;;;;;;8.60;6.25;;;29.40;99.90;;;;;;4162889;28;20072;-65
2022/08/28 01:37:57;;;;;;;8.40;6.25;;;29.50;99.90;;;;;;4159839;28;20076;-66
2022/08/28 01:40:03;;;;;;;9.80;6.03;;;29.50;99.90;;;;;;4162184;28;20144;-65
2022/08/28 01:42:08;;;;;;;10.45;5.95;;;29.60;99.90;;;;;;4160535;28;20069;-65
2022/08/28 01:44:18;;;;;;;8.88;5.40;;;29.70;99.90;;;;;;4162774;28;20046;-65
2022/08/28 01:46:22;;;;;;;9.73;5.85;;;29.70;99.90;;;;;;4162819;28;20056;-66
2022/08/28 01:48:28;;;;;;;7.80;5.50;;;29.80;99.90;;;;;;4162122;28;20064;-66
2022/08/28 01:50:36;;;;;;;8.60;5.10;;;29.90;99.90;;;;;;4160972;28;20034;-65
2022/08/28 01:52:41;;;;;;;7.68;5.57;;;30.00;99.90;;;;;;4162673;28;20037;-66
2022/08/28 01:54:46;;;;;;;7.70;5.30;;;30.10;99.90;;;;;;4162547;28;20748;-65
2022/08/28 01:56:54;;;;;;;6.63;4.97;;;30.20;99.90;;;;;;4160195;28;20037;-66
2022/08/28 01:59:00;;;;;;;8.45;5.18;;;30.30;99.90;;;;;;4161557;28;20043;-65
2022/08/28 02:01:19;;;;;;;7.00;5.15;;;30.30;99.90;;;;;;4161700;28;20037;-65
2022/08/28 02:03:27;;;;;;;6.65;4.78;;;30.40;99.90;;;;;;4161791;28;20061;-65
2022/08/28 02:05:32;;;;;;;6.78;4.60;;;30.60;99.90;;;;;;4160079;28;20049;-65
2022/08/28 02:07:37;;;;;;;6.32;4.60;;;30.60;99.90;;;;;;4162636;28;20068;-66
2022/08/28 02:09:44;;;;;;;9.55;4.82;;;30.70;99.90;;;;;;4161650;28;20175;-65
2022/08/28 02:11:49;;;;;;;8.05;4.07;;;30.70;99.90;;;;;;4160220;28;20141;-65
2022/08/28 02:13:54;;;;;;;6.13;4.60;;;30.80;99.90;;;;;;4162233;28;20099;-66
2022/08/28 02:16:05;;;;;;;8.52;4.53;;;30.90;99.90;;;;;;4162347;28;20125;-65
2022/08/28 02:18:09;;;;;;;5.05;3.85;;;31.00;99.90;;;;;;4160515;28;20729;-66
2022/08/28 02:20:14;;;;;;;7.20;4.00;;;31.20;99.90;;;;;;4162441;28;20045;-65
2022/08/28 02:22:23;;;;;;;5.68;4.00;;;31.20;99.90;;;;;;4162417;28;20060;-65
2022/08/28 02:24:28;;;;;;;5.63;3.90;;;31.20;99.90;;;;;;4160339;28;20048;-65
2022/08/28 02:26:33;;;;;;;3.55;3.00;;;31.30;99.90;;;;;;4162281;28;20045;-65
2022/08/28 02:28:41;;;;;;;6.07;3.50;;;31.30;99.90;;;;;;4159689;28;20504;-65
2022/08/28 02:30:47;;;;;;;7.22;3.80;;;31.40;99.90;;;;;;4160535;28;20037;-65
2022/08/28 02:32:51;;;;;;;3.70;2.80;;;31.50;99.90;;;;;;4162509;28;20049;-66
2022/08/28 02:34:59;;;;;;;3.83;3.20;;;31.50;99.90;;;;;;4162037;28;20107;-66
2022/08/28 02:37:06;;;;;;;5.50;3.25;;;31.50;99.90;;;;;;4160368;28;20053;-65
2022/08/28 02:39:13;;;;;;;5.32;3.03;;;31.50;99.90;;;;;;4161403;28;20049;-65
2022/08/28 02:41:20;;;;;;;5.30;3.35;;;31.60;99.90;;;;;;4161357;28;20068;-65
2022/08/28 02:43:25;;;;;;;3.88;2.65;;;31.60;99.90;;;;;;4160344;28;20525;-65
2022/08/28 02:45:31;;;;;;;4.50;3.03;;;31.70;99.90;;;;;;4159608;28;20045;-65
2022/08/28 02:47:41;;;;;;;4.30;2.90;;;31.70;99.90;;;;;;4160586;28;20083;-65
2022/08/28 02:49:46;;;;;;;4.72;2.53;;;31.80;99.90;;;;;;4159450;28;20516;-65
2022/08/28 02:51:50;;;;;;;3.63;2.58;;;31.80;99.90;;;;;;4161581;28;20512;-66
2022/08/28 02:53:59;;;;;;;4.55;2.67;;;31.90;99.90;;;;;;4159530;28;20099;-65
2022/08/28 02:56:04;;;;;;;5.53;2.58;;;31.90;99.90;;;;;;4161814;28;20638;-66
2022/08/28 02:58:09;;;;;;;3.65;2.22;;;32.00;99.90;;;;;;4161598;28;20451;-66
2022/08/28 03:00:18;;;;;;;4.72;2.58;;;32.00;99.90;;;;;;4159573;28;20052;-65
2022/08/28 03:02:23;;;;;;;4.47;2.83;;;32.10;99.90;;;;;;4162213;28;20049;-65
2022/08/28 03:04:30;;;;;;;4.53;3.15;;;32.20;99.90;;;;;;4161421;28;20472;-66
2022/08/28 03:06:38;;;;;;;5.03;3.70;;;32.20;99.90;;;;;;4157062;28;20052;-66
2022/08/28 03:08:43;;;;;;;6.32;4.13;;;32.20;99.90;;;;;;4161663;28;20045;-65
2022/08/28 03:10:47;;;;;;;3.95;3.20;;;32.30;99.90;;;;;;4161411;28;20619;-66
2022/08/28 03:12:56;;;;;;;5.15;2.80;;;32.30;99.90;;;;;;4159174;28;20385;-66
2022/08/28 03:15:00;;;;;;;4.97;3.00;;;32.40;99.90;;;;;;4158102;28;20084;-65
2022/08/28 03:17:06;;;;;;;4.00;3.20;;;32.30;99.90;;;;;;4160296;28;20057;-65
2022/08/28 03:19:12;;;;;;;4.30;2.80;;;32.40;99.90;;;;;;4161129;28;20578;-65
2022/08/28 03:21:17;;;;;;;4.10;2.20;;;32.50;99.90;;;;;;4158729;28;20061;-66
2022/08/28 03:23:25;;;;;;;3.75;2.30;;;32.50;99.90;;;;;;4161099;28;20057;-67
2022/08/28 03:25:33;;;;;;;5.97;2.80;;;32.60;99.90;;;;;;4161118;28;20049;-65
2022/08/28 03:27:38;;;;;;;4.28;2.40;;;32.60;99.90;;;;;;4159690;28;20667;-65
2022/08/28 03:29:42;;;;;;;5.93;2.85;;;32.70;99.90;;;;;;4161491;28;20095;-65
2022/08/28 03:31:51;;;;;;;3.40;2.40;;;32.60;99.20;;;;;;4119203;28;20776;-66
2022/08/28 03:33:56;;;;;;;5.60;2.35;;;32.60;98.80;;;;;;4158577;28;20124;-65
2022/08/28 03:36:01;;;;;;;4.82;2.60;;;32.60;98.30;;;;;;4161225;28;20049;-66
2022/08/28 03:38:10;;;;;;;4.75;2.53;;;32.60;98.80;;;;;;4161417;28;20053;-68
2022/08/28 03:40:18;;;;;;;4.13;2.45;;;32.70;98.20;;;;;;4161345;28;20104;-66
2022/08/28 03:42:23;;;;;;;13.65;4.15;;;32.60;97.70;;;;;;4161414;28;20778;-67
2022/08/28 03:44:30;;;;;;;10.35;3.75;;;32.70;98.40;;;;;;4161350;28;20045;-65
2022/08/28 03:46:38;;;;;;;6.70;3.22;;;32.90;97.90;;;;;;4151732;28;20123;-64
2022/08/28 03:48:43;;;;;;;4.50;2.22;;;33.00;97.80;;;;;;4159725;28;20148;-64
2022/08/28 03:50:49;;;;;;;4.05;2.65;;;33.00;97.60;;;;;;4160883;28;20041;-65
2022/08/28 03:52:55;;;;;;;3.88;2.63;;;33.10;97.30;;;;;;4160822;28;20038;-66
2022/08/28 03:55:00;;;;;;;3.60;2.50;;;33.00;97.80;;;;;;4161375;28;20073;-65
2022/08/28 03:57:07;;;;;;;6.95;2.88;;;33.00;98.50;;;;;;4142420;28;20842;-65
2022/08/28 03:59:11;;;;;;;6.60;2.90;;;32.80;98.90;;;;;;4161144;28;20136;-65
2022/08/28 04:01:17;;;;;;;5.25;2.75;;;32.70;98.40;;;;;;4158935;28;20049;-66
2022/08/28 04:03:24;;;;;;;4.88;3.08;;;32.70;99.00;;;;;;4138859;28;20054;-63
2022/08/28 04:05:29;;;;;;;5.53;2.88;;;32.60;98.40;;;;;;4159479;28;20132;-62
2022/08/28 04:07:34;;;;;;;4.10;2.83;;;32.60;98.80;;;;;;4160183;28;20040;-63
2022/08/28 04:09:42;;;;;;;4.80;2.70;;;32.60;98.80;;;;;;4157546;28;20137;-62
2022/08/28 04:11:47;;;;;;;3.78;2.92;;;32.70;98.70;;;;;;4154947;28;20104;-62
2022/08/28 04:13:52;;;;;;;4.82;2.75;;;32.90;98.10;;;;;;4157427;28;20045;-63
2022/08/28 04:16:02;;;;;;;5.85;2.75;;;32.90;98.00;;;;;;4157369;28;20128;-63
2022/08/28 04:18:09;;;;;;;4.25;2.63;;;33.00;97.70;;;;;;4158119;28;20042;-64
2022/08/28 04:20:14;;;;;;;6.20;2.90;;;33.20;97.80;;;;;;4157907;28;20492;-64
2022/08/28 04:22:22;;;;;;;3.83;2.28;;;33.30;97.60;;;;;;4157889;28;20148;-64
2022/08/28 04:24:27;;;;;;;3.70;2.50;;;33.30;97.00;;;;;;4157558;28;20079;-64
2022/08/28 04:26:35;;;;;;;7.25;3.05;;;33.30;96.60;;;;;;4156698;28;20447;-64
2022/08/28 04:28:44;;;;;;;6.57;2.60;;;33.30;96.60;;;;;;4156115;28;20107;-64
2022/08/28 04:30:55;;;;;;;4.10;2.45;;;33.30;96.30;;;;;;4157411;28;20572;-64
2022/08/28 04:33:00;;;;;;;4.95;2.08;;;33.30;96.60;;;;;;4157348;28;20396;-63
2022/08/28 04:35:09;;;;;;;3.03;1.83;;;33.40;96.40;;;;;;4159739;28;20092;-64
2022/08/28 04:37:14;;;;;;;3.25;1.98;;;33.50;96.40;;;;;;4160547;28;20037;-64
2022/08/28 04:39:19;;;;;;;4.45;2.00;;;33.60;96.20;;;;;;4157312;28;20054;-64
2022/08/28 04:41:29;;;;;;;3.58;2.28;;;33.70;96.00;;;;;;4160887;28;20690;-63
2022/08/28 04:43:34;;;;;;;2.63;1.83;;;33.70;95.10;;;;;;4155202;28;20407;-64
2022/08/28 04:45:43;;;;;;;4.90;2.20;;;33.70;94.70;;;;;;4160602;28;20033;-64
2022/08/28 04:47:51;;;;;;;5.22;2.05;;;33.70;95.30;;;;;;4160821;28;20030;-63
2022/08/28 04:49:55;;;;;;;2.67;2.17;;;33.70;94.70;;;;;;4158068;28;20783;-63
2022/08/28 04:52:00;;;;;;;2.75;1.73;;;33.70;95.10;;;;;;4156840;28;20107;-65
2022/08/28 04:54:06;;;;;;;6.78;3.25;;;33.80;95.20;;;;;;4153479;28;20810;-64
2022/08/28 04:56:12;;;;;;;4.80;2.35;;;33.90;95.10;;;;;;4158565;28;20041;-65
2022/08/28 04:58:17;;;;;;;7.00;2.38;;;34.00;95.10;;;;;;4158291;28;20601;-64
2022/08/28 05:00:28;;;;;;;4.07;2.10;;;33.90;94.20;;;;;;4125274;28;20064;-64
2022/08/28 05:02:33;;;;;;;4.05;2.13;;;33.90;94.60;;;;;;4160139;28;20072;-64
2022/08/28 05:04:37;;;;;;;5.38;2.10;;;33.90;94.70;;;;;;4160036;28;20049;-64
2022/08/28 05:06:45;;;;;;;3.17;2.08;;;33.80;94.40;;;;;;4155663;28;20083;-63
2022/08/28 05:08:50;;;;;;;2.60;2.10;;;33.90;94.60;;;;;;4160211;28;20037;-64
2022/08/28 05:10:56;;;;;;;2.78;2.10;;;33.90;94.00;;;;;;4160273;28;20052;-65
2022/08/28 05:13:06;;;;;;;4.88;2.15;;;33.80;94.20;;;;;;4158243;28;20057;-64
2022/08/28 05:15:11;;;;;;;3.88;2.20;;;33.80;94.40;;;;;;4160256;28;20073;-65
2022/08/28 05:17:19;;;;;;;4.45;2.45;;;33.90;94.70;;;;;;4157627;28;20060;-63
2022/08/28 05:19:27;;;;;;;3.92;2.40;;;34.00;94.60;;;;;;4160317;28;20088;-64
2022/08/28 05:21:32;;;;;;;3.22;2.30;;;34.20;94.80;;;;;;4159985;28;20037;-64
2022/08/28 05:23:37;;;;;;;4.43;2.47;;;34.20;94.00;;;;;;4160062;28;20049;-63
2022/08/28 05:25:46;;;;;;;3.67;2.10;;;34.30;94.50;;;;;;4158042;28;20037;-64
2022/08/28 05:27:51;;;;;;;3.92;2.42;;;34.30;94.40;;;;;;4160219;28;20046;-65
2022/08/28 05:29:57;;;;;;;4.28;2.10;;;34.30;94.20;;;;;;4159579;28;20049;-64
2022/08/28 05:32:06;;;;;;;4.22;3.00;;;34.30;94.20;;;;;;4154857;28;20069;-64
2022/08/28 05:34:11;;;;;;;4.10;2.00;;;34.40;94.50;;;;;;4154476;28;20057;-65
2022/08/28 05:36:16;;;;;;;4.65;2.47;;;34.40;94.70;;;;;;4159969;28;20598;-65
2022/08/28 05:38:22;;;;;;;3.97;2.30;;;34.50;94.50;;;;;;4158022;28;20064;-66
2022/08/28 05:40:27;;;;;;;3.60;2.10;;;34.30;94.40;;;;;;4159848;28;20061;-64
2022/08/28 05:42:33;;;;;;;6.00;2.33;;;34.40;94.20;;;;;;4159778;28;20049;-65
2022/08/28 05:44:41;;;;;;;5.82;2.35;;;34.50;93.20;;;;;;4159091;28;20055;-64
2022/08/28 05:46:47;;;;;;;3.00;2.10;;;34.60;93.60;;;;;;4157536;28;20083;-65
2022/08/28 05:48:51;;;;;;;3.03;2.08;;;34.50;93.80;;;;;;4159874;28;20144;-65
2022/08/28 05:51:16;;;;;;;3.38;2.30;;;34.50;93.20;;;;;;4159468;28;20049;-65
2022/08/28 05:53:21;;;;;;;3.75;2.05;;;34.50;93.00;;;;;;4159528;28;20033;-65
2022/08/28 05:55:25;;;;;;;3.53;1.85;;;34.50;92.70;;;;;;4157165;28;20135;-65
2022/08/28 05:57:34;;;;;;;3.38;2.28;;;34.50;91.80;;;;;;4154576;28;20103;-65
2022/08/28 05:59:38;;;;;;;3.58;2.05;;;34.50;92.50;;;;;;4159738;28;20061;-65
2022/08/28 06:01:45;;;;;;;3.22;1.90;;;34.60;92.80;;;;;;4158402;28;20611;-65
2022/08/28 06:04:00;;;;;;;3.20;2.03;;;34.70;92.90;;;;;;4159651;28;20045;-65
2022/08/28 06:06:05;;;;;;;4.03;2.20;;;34.80;92.90;;;;;;4157157;28;20124;-65
2022/08/28 06:08:09;;;;;;;2.75;2.15;;;34.80;93.00;;;;;;4158073;28;20055;-64
2022/08/28 06:10:15;;;;;;;3.20;2.10;;;34.70;92.40;;;;;;4159257;28;20136;-64
2022/08/28 06:12:21;;;;;;;4.55;2.63;;;34.50;93.10;;;;;;4158974;28;20041;-64
2022/08/28 06:14:25;;;;;;;3.15;2.28;;;34.50;93.40;;;;;;4157054;28;20064;-64
2022/08/28 06:16:33;;;;;;;8.02;2.40;;;34.60;93.30;;;;;;4159527;28;20041;-64
2022/08/28 06:18:38;;;;;;;2.88;2.40;;;34.80;92.90;;;;;;4159307;28;20080;-65
2022/08/28 06:20:43;;;;;;;5.57;2.80;;;34.70;93.30;;;;;;4159127;28;20103;-64
2022/08/28 06:22:52;;;;;;;3.33;2.30;;;34.70;93.60;;;;;;4156842;28;20049;-65
2022/08/28 06:24:57;;;;;;;3.08;2.25;;;34.80;93.80;;;;;;4158363;28;20045;-65
2022/08/28 06:27:01;;;;;;;4.00;2.40;;;34.70;92.80;;;;;;4158451;28;20099;-63
2022/08/28 06:29:10;;;;;;;3.97;2.22;;;34.80;93.10;;;;;;4158401;28;20045;-63
2022/08/28 06:31:14;;;;;;;3.13;2.13;;;34.90;93.20;;;;;;4157717;28;20073;-66
2022/08/28 06:33:27;;;;;;;3.90;2.33;;;35.00;93.00;;;;;;4158483;28;20153;-64
2022/08/28 06:35:38;;;;;;;7.65;2.72;;;35.00;93.20;;;;;;4157235;28;20049;-65
2022/08/28 06:37:43;;;;;;;3.80;2.33;;;35.10;93.40;;;;;;4158565;28;20127;-65
2022/08/28 06:39:48;;;;;;;4.82;2.47;;;35.10;93.20;;;;;;4158312;28;20135;-65
2022/08/28 06:41:54;;;;;;;3.20;2.10;;;35.20;93.20;;;;;;4157293;28;20080;-65
2022/08/28 06:43:59;;;;;;;3.45;2.22;;;35.30;93.10;;;;;;4158169;28;20079;-65
2022/08/28 06:46:03;;;;;;;3.97;2.38;;;35.30;93.00;;;;;;4157528;28;20065;-65
2022/08/28 06:48:16;;;;;;;5.50;2.53;;;35.40;92.70;;;;;;4156987;28;20044;-65
2022/08/28 06:50:22;;;;;;;4.78;2.40;;;35.20;92.40;;;;;;4156721;28;20041;-64
2022/08/28 06:52:26;;;;;;;5.28;2.40;;;35.30;92.60;;;;;;4157818;28;20045;-65
2022/08/28 06:54:35;;;;;;;4.97;2.50;;;35.20;92.50;;;;;;4099099;28;20055;-65
2022/08/28 06:56:40;;;;;;;4.65;2.30;;;35.20;92.30;;;;;;4157089;28;20084;-64
2022/08/28 06:58:46;;;;;;;3.65;2.17;;;35.10;92.20;;;;;;4158138;28;20106;-63
2022/08/28 07:01:00;;;;;;;3.15;2.25;;;34.90;92.80;;;;;;4157850;28;20053;-64
2022/08/28 07:03:05;;;;;;;;;;;35.10;92.90;;;;;;4158209;28;20067;-64
2022/08/28 07:05:09;;;;;;;3.10;2.00;;;35.30;92.60;;;;;;4156375;28;19921;-64
2022/08/28 07:07:18;;;;;;;3.15;2.20;;;35.30;92.20;;;;;;4158372;28;20072;-65
2022/08/28 07:09:34;;;;;;;3.70;2.00;;;35.40;92.00;;;;;;4157094;28;20193;-65
2022/08/28 07:11:40;;;;;;;2.88;2.20;;;35.40;91.80;;;;;;4157954;28;20042;-65
2022/08/28 07:13:47;;;;;;;3.88;1.75;;;35.50;91.20;;;;;;4158619;28;20073;-64
2022/08/28 07:15:53;;;;;;;3.38;1.70;;;35.30;91.40;;;;;;4158495;28;20211;-65
2022/08/28 07:17:57;;;;;;;3.40;2.15;;;35.10;91.50;;;;;;4158047;28;20136;-64
2022/08/28 07:20:06;;;;;;;3.35;1.90;;;35.00;91.80;;;;;;4157139;28;20041;-65
2022/08/28 07:22:10;;;;;;;4.63;2.00;;;34.80;91.60;;;;;;4157543;28;20116;-64
2022/08/28 07:24:15;;;;;;;2.83;1.85;;;35.00;91.50;;;;;;4156624;28;20049;-65
2022/08/28 07:26:24;;;;;;;2.63;2.03;;;35.20;91.20;;;;;;4157429;28;20045;-64
2022/08/28 07:28:29;;;;;;;2.28;1.90;;;35.40;91.20;;;;;;4156120;28;20634;-64
2022/08/28 07:30:34;;;;;;;2.95;2.10;;;35.50;91.00;;;;;;4157927;28;20592;-64
2022/08/28 07:32:40;;;;;;;5.05;1.80;;;35.60;91.00;;;;;;4157640;28;20042;-63
2022/08/28 07:34:44;;;;;;;3.10;1.90;;;35.70;90.90;;;;;;4153760;28;20128;-64
2022/08/28 07:36:53;;;;;;;4.13;1.90;;;35.70;91.00;;;;;;4155849;28;20052;-64
2022/08/28 07:39:03;;;;;;;3.55;2.03;;;35.60;91.00;;;;;;4154999;28;20052;-64
2022/08/28 07:41:19;;;;;;;3.15;1.95;;;35.70;90.80;;;;;;4155187;28;20044;-64
2022/08/28 07:45:47;;;;;;;2.47;1.80;;;35.20;91.10;;;;;;4155661;28;20099;-64
2022/08/28 07:47:51;;;;;;;4.07;1.80;;;34.80;91.40;;;;;;4155761;28;20033;-64
2022/08/28 07:49:59;;;;;;;2.17;1.73;;;34.50;90.50;;;;;;4154731;28;20037;-64
2022/08/28 07:52:06;;;;;;;2.70;2.13;;;34.40;91.30;;;;;;4154718;28;20103;-63
2022/08/28 07:54:11;;;;;;;3.97;1.92;;;34.40;91.30;;;;;;4154662;28;20104;-64
2022/08/28 07:56:20;;;;;;;4.50;1.67;;;34.50;90.90;;;;;;4154968;28;20057;-64
2022/08/28 07:58:27;;;;;;;2.63;1.70;;;34.50;91.00;;;;;;4154511;28;20054;-64
2022/08/28 08:00:32;;;;;;;3.28;1.70;;;34.50;91.10;;;;;;4155423;28;20700;-63
2022/08/28 08:02:36;;;;;;;4.05;1.98;;;34.50;91.40;;;;;;4154514;28;20562;-63
2022/08/28 08:04:45;;;;;;;3.03;2.05;;;34.40;91.40;;;;;;4155775;28;20049;-64
2022/08/28 08:06:51;;;;;;;4.43;2.03;;;34.60;91.40;;;;;;4154416;28;20065;-64
2022/08/28 08:09:00;;;;;;;3.78;1.88;;;34.80;91.20;;;;;;4157004;28;20042;-63
2022/08/28 08:11:10;;;;;;;2.47;1.80;;;34.80;90.90;;;;;;4154962;28;20045;-63
2022/08/28 08:13:18;;;;;;;4.20;1.92;;;34.90;90.80;;;;;;4157208;28;20056;-63
2022/08/28 08:15:23;;;;;;;3.85;1.80;;;35.00;90.90;;;;;;4156917;28;20049;-64
2022/08/28 08:17:35;;;;;;;4.10;2.10;;;35.00;90.90;;;;;;4155476;28;20408;-64
2022/08/28 08:19:39;;;;;;;4.18;2.08;;;35.00;91.10;;;;;;4157071;28;20045;-65
2022/08/28 08:21:47;;;;;;;3.05;2.00;;;35.10;90.90;;;;;;4157258;28;20063;-64
2022/08/28 08:23:59;;;;;;;2.78;1.83;;;35.00;90.70;;;;;;4155802;28;20100;-64
2022/08/28 08:26:06;;;;;;;3.83;1.92;;;35.10;91.00;;;;;;4155946;28;20037;-64
2022/08/28 08:28:10;;;;;;;5.00;1.85;;;35.10;91.20;;;;;;4156221;28;20049;-64
2022/08/28 08:30:16;;;;;;;3.50;1.83;;;35.10;90.90;;;;;;4156155;28;20054;-64
2022/08/28 08:32:20;;;;;;;3.70;1.73;;;35.00;90.70;;;;;;4156780;28;20051;-64
2022/08/28 08:34:25;;;;;;;2.35;1.80;;;35.00;90.80;;;;;;4154642;28;20061;-64
2022/08/28 08:36:33;;;;;;;2.28;1.67;;;35.00;90.80;;;;;;4100190;28;20150;-64
2022/08/28 08:38:39;;;;;;;2.22;1.70;;;34.90;90.90;;;;;;4156959;28;20056;-64
2022/08/28 08:40:44;;;;;;;1.77;1.50;;;34.90;90.90;;;;;;4154907;28;20455;-64
2022/08/28 08:42:55;;;;;;;2.50;1.90;;;34.80;90.90;;;;;;4157511;28;20050;-64
2022/08/28 08:45:03;;;;;;;2.08;1.70;;;34.60;91.00;;;;;;4157261;28;20712;-64
2022/08/28 08:47:31;;;;;;;3.55;1.90;;;34.60;91.40;;;;;;4156919;28;20100;-64
2022/08/28 08:49:39;;;;;;;2.78;1.88;;;34.70;91.00;;;;;;4156857;28;20629;-64
2022/08/28 08:51:56;;;;;;;4.63;1.90;;;34.70;90.70;;;;;;4154650;28;20496;-64
2022/08/28 08:54:07;;;;;;;3.67;1.75;;;34.70;90.80;;;;;;4156899;28;20088;-65
2022/08/28 08:56:16;;;;;;;2.90;1.80;;;34.70;91.10;;;;;;4157453;28;20091;-65
2022/08/28 08:58:28;;;;;;;3.45;2.25;;;34.70;91.30;;;;;;4154874;28;20510;-64
2022/08/28 09:00:39;;;;;;;5.43;2.53;;;34.80;91.40;;;;;;4157201;28;20048;-65
2022/08/28 09:03:01;;;;;;;5.05;2.35;;;34.90;91.20;;;;;;4155861;28;20673;-65
2022/08/28 09:05:09;;;;;;;2.97;1.75;;;34.80;91.00;;;;;;4154146;28;20041;-65
2022/08/28 09:07:29;;;;;;;4.68;1.67;;;34.80;91.00;;;;;;4155057;28;20567;-66
2022/08/28 09:09:47;;;;;;;3.25;1.80;;;34.90;90.90;;;;;;4155972;28;20037;-64
2022/08/28 09:12:00;;;;;;;2.60;1.55;;;34.90;90.80;;;;;;4155043;28;20464;-63
2022/08/28 09:14:33;;;;;;;1.95;1.70;;;34.90;90.50;;;;;;4154455;28;20045;-63
2022/08/28 09:16:41;;;;;;;2.38;1.50;;;34.90;90.40;;;;;;4155073;28;20045;-64
2022/08/28 09:18:47;;;;;;;3.13;1.75;;;34.90;90.30;;;;;;4156694;28;20119;-64
2022/08/28 09:20:53;;;;;;;2.13;1.40;;;34.90;90.30;;;;;;4159536;28;20100;-65
2022/08/28 09:22:59;;;;;;;2.53;1.55;;;35.00;90.50;;;;;;4159696;28;20041;-66
2022/08/28 09:25:54;;;;;;;3.10;1.48;;;35.00;90.40;;;;;;4159688;28;20045;-65
2022/08/28 09:28:06;;;;;;;4.20;1.70;;;34.90;90.70;;;;;;4159504;28;20041;-64
2022/08/28 09:30:11;;;;;;;3.97;1.70;;;35.00;90.70;;;;;;4157777;28;20044;-65
2022/08/28 09:32:40;;;;;;;2.30;1.60;;;35.00;90.20;;;;;;4158975;28;20051;-65
2022/08/28 09:35:05;;;;;;;3.17;1.77;;;34.80;90.10;;;;;;4158320;28;20156;-65
2022/08/28 09:37:09;;;;;;;3.25;1.83;;;34.80;90.50;;;;;;4173272;28;20562;-66
2022/08/28 09:39:24;;;;;;;2.97;1.90;;;34.80;90.70;;;;;;4170706;28;20063;-65
2022/08/28 09:43:46;;;;;;;2.80;1.80;;;34.70;91.00;;;;;;4159006;28;20053;-64
2022/08/28 09:46:20;;;;;;;4.15;1.77;;;34.70;90.80;;;;;;4159394;28;20111;-64
2022/08/28 09:48:35;;;;;;;4.30;1.90;;;34.70;90.60;;;;;;4159305;28;20435;-64
2022/08/28 09:50:56;;;;;;;2.65;1.58;;;34.70;90.80;;;;;;4158807;28;20080;-65
2022/08/28 09:53:15;;;;;;;2.13;1.70;;;34.70;91.00;;;;;;4156753;28;20037;-64
2022/08/28 09:55:51;;;;;;;2.58;1.80;;;34.50;90.80;;;;;;4156969;28;20045;-64
2022/08/28 09:57:58;;;;;;;1.92;1.60;;;34.60;90.80;;;;;;4156902;28;20064;-64
2022/08/28 10:00:03;;;;;;;2.60;1.88;;;34.60;91.30;;;;;;4156820;28;20049;-64
2022/08/28 10:02:28;;;;;;;5.72;1.88;;;34.40;91.10;;;;;;4155583;28;20041;-64
2022/08/28 10:04:50;;;;;;;3.67;1.85;;;34.40;91.20;;;;;;4139101;28;20082;-64
2022/08/28 10:07:23;;;;;;;4.63;2.05;;;34.40;92.10;;;;;;4158100;28;20037;-64
2022/08/28 10:10:01;;;;;;;4.53;2.58;;;34.30;91.90;;;;;;4159552;28;20077;-65
2022/08/28 10:12:42;;;;;;;4.50;3.72;;;34.20;91.50;;;;;;4159266;28;20065;-66
2022/08/28 10:15:17;;;;;;;3.60;2.17;;;34.30;91.10;;;;;;4158094;28;20045;-64
2022/08/28 10:17:47;;;;;;;3.47;2.10;;;34.20;90.80;;;;;;4153259;28;20745;-65
2022/08/28 10:20:16;;;;;;;3.47;2.17;;;34.20;90.80;;;;;;4159875;28;20133;-65
2022/08/28 10:22:39;;;;;;;3.47;2.78;;;34.30;91.00;;;;;;4159060;28;20409;-64
2022/08/28 10:25:10;;;;;;;3.97;2.80;;;34.20;90.70;;;;;;4158261;28;20689;-64
2022/08/28 10:27:54;;;;;;;7.78;3.65;;;34.20;91.00;;;;;;4157256;28;20554;-63
2022/08/28 10:30:18;;;;;;;5.10;3.17;;;34.20;91.00;;;;;;4157682;28;20076;-63
2022/08/28 10:33:01;;;;;;;6.53;3.28;;;34.20;91.10;;;;;;4157958;28;20518;-64
2022/08/28 10:35:22;;;;;;;4.18;3.28;;;34.10;91.10;;;;;;4158477;28;20041;-64
2022/08/28 10:37:53;;;;;;;6.63;3.30;;;34.10;91.00;;;;;;4158978;28;20057;-64
2022/08/28 10:40:03;;;;;;;4.00;2.47;;;34.10;91.10;;;;;;4156885;28;20057;-64
2022/08/28 10:42:08;;;;;;;9.10;2.60;;;34.00;91.10;;;;;;4174363;28;20120;-64
2022/08/28 10:44:17;;;;;;;9.88;3.33;;;33.90;91.30;;;;;;4158953;28;20112;-65
2022/08/28 10:46:29;;;;;;;11.57;3.30;;;33.90;91.50;;;;;;4158855;28;20041;-64
2022/08/28 10:48:47;;;;;;;7.03;3.85;;;33.80;91.80;;;;;;4159516;28;20664;-64
2022/08/28 10:50:57;;;;;;;6.13;3.30;;;33.70;91.80;;;;;;4159449;28;20080;-65
2022/08/28 10:53:33;;;;;;;8.85;4.07;;;33.70;92.00;;;;;;4159683;28;20046;-64
2022/08/28 10:56:01;;;;;;;11.38;7.53;;;33.70;92.20;;;;;;4159490;28;20057;-65
2022/08/28 10:58:07;;;;;;;11.10;8.15;;;33.70;92.70;;;;;;4158381;28;20041;-64
2022/08/28 11:00:29;;;;;;;7.70;5.10;;;33.50;93.00;;;;;;4145092;28;20053;-65
2022/08/28 11:02:42;;;;;;;9.75;5.13;;;33.50;93.60;;;;;;4158984;28;20091;-65
2022/08/28 11:04:48;;;;;;;8.02;4.00;;;33.40;93.50;;;;;;4158970;28;20033;-65
2022/08/28 11:06:56;;;;;;;7.07;3.05;;;33.30;93.80;;;;;;4158976;28;20132;-65
2022/08/28 11:11:45;;;;;;;6.25;4.05;;;33.30;94.40;;;;;;4157348;28;20056;-63
2022/08/28 11:13:56;;;;;;;9.68;3.85;;;33.30;94.60;;;;;;4157353;28;20045;-64
2022/08/28 11:16:09;;;;;;;7.90;3.97;;;33.30;94.80;;;;;;4156773;28;20041;-64
2022/08/28 11:18:36;;;;;;;7.97;4.50;;;33.20;95.00;;;;;;4171600;28;20053;-64
2022/08/28 11:20:54;;;;;;;8.85;5.00;;;33.20;95.30;;;;;;4157243;28;20140;-64
2022/08/28 11:23:16;;;;;;;7.13;4.28;;;33.10;95.20;;;;;;4157546;28;20057;-64